Time;durP1;ratioP1;P1;durP2;ratioP2;P2;SDS_P1;SDS_P2;PMS_P1;PMS_P2;Temp;Humidity;BMP_temperature;BMP_pressure;BME280_temperature;BME280_humidity;BME280_pressure;Samples;Min_cycle;Max_cycle;Signal;HPM_P1;HPM_P2
2023/03/30 00:00:17;;;;;;;;;;;;;;;14.54;50.90;99510.09;1087652;46;20354;-81
2023/03/30 00:01:21;;;;;;;;;;;;;;;14.51;50.96;99504.06;1087582;54;19942;-80
2023/03/30 00:02:22;;;;;;;;;;;;;;;14.51;50.72;99505.88;1087479;54;19927;-79
2023/03/30 00:03:26;;;;;;;;;;;;;;;14.50;51.38;99509.59;1088449;46;20026;-79
2023/03/30 00:04:27;;;;;;;;;;;;;;;14.49;51.35;99519.53;1087411;54;19938;-79
2023/03/30 00:05:31;;;;;;;;;;;;;;;14.47;51.33;99526.94;1087503;54;20027;-80
2023/03/30 00:06:38;;;;;;;;;;;;;;;14.49;51.40;99522.22;1088250;46;20019;-78
2023/03/30 00:07:43;;;;;;;;;;;;;;;14.50;51.59;99512.28;1088020;39;20234;-78
2023/03/30 00:08:44;;;;;;;;;;;;;;;14.51;51.49;99512.13;1087505;54;20835;-80
2023/03/30 00:09:54;;;;;;;;;;;;;;;14.51;51.93;99503.19;1087572;54;19950;-79
2023/03/30 00:10:59;;;;;;;;;;;;;;;14.48;52.78;99514.34;1087422;54;19938;-80
2023/03/30 00:12:03;;;;;;;;;;;;;;;14.45;54.00;99512.84;1087575;54;20203;-79
2023/03/30 00:13:04;;;;;;;;;;;;;;;14.41;53.89;99511.53;1088425;46;20736;-80
2023/03/30 00:14:08;;;;;;;;;;;;;;;14.38;54.26;99514.59;1087657;54;20583;-79
2023/03/30 00:15:11;;;;;;;;;;;;;;;14.35;54.10;99513.09;1087683;54;19943;-79
2023/03/30 00:16:15;;;;;;;;;;;;;;;14.34;54.42;99506.06;1087559;54;19989;-79
2023/03/30 00:17:16;;;;;;;;;;;;;;;14.31;54.98;99500.22;1087661;54;19973;-79
2023/03/30 00:18:20;;;;;;;;;;;;;;;14.26;54.58;99497.25;1087576;54;19951;-81
2023/03/30 00:19:21;;;;;;;;;;;;;;;14.19;55.32;99497.97;1087299;54;19946;-79
2023/03/30 00:20:25;;;;;;;;;;;;;;;14.14;55.35;99494.13;1087233;54;19942;-79
2023/03/30 00:21:27;;;;;;;;;;;;;;;14.07;57.41;99486.00;1087268;54;19999;-80
2023/03/30 00:22:33;;;;;;;;;;;;;;;14.04;56.01;99494.41;1087329;54;19943;-79
2023/03/30 00:23:35;;;;;;;;;;;;;;;14.05;55.99;99485.34;1087252;54;19950;-80
2023/03/30 00:24:39;;;;;;;;;;;;;;;14.03;56.48;99485.50;1087326;54;19958;-81
2023/03/30 00:25:41;;;;;;;;;;;;;;;14.04;56.90;99491.72;1087109;54;19942;-80
2023/03/30 00:26:44;;;;;;;;;;;;;;;14.00;57.30;99482.34;1087434;54;19942;-80
2023/03/30 00:27:46;;;;;;;;;;;;;;;13.98;56.97;99476.31;1087357;54;19942;-80
2023/03/30 00:28:49;;;;;;;;;;;;;;;13.96;57.44;99473.81;1087118;54;20023;-81
2023/03/30 00:29:51;;;;;;;;;;;;;;;13.96;57.70;99475.66;1087360;54;19943;-78
2023/03/30 00:30:55;;;;;;;;;;;;;;;13.91;58.19;99467.28;1087356;54;19966;-79
2023/03/30 00:31:56;;;;;;;;;;;;;;;13.88;59.30;99465.81;1087388;54;19942;-79
2023/03/30 00:33:00;;;;;;;;;;;;;;;13.83;59.89;99454.78;1087413;54;19946;-80
2023/03/30 00:34:01;;;;;;;;;;;;;;;13.81;59.82;99452.25;1087300;54;19943;-80
2023/03/30 00:35:06;;;;;;;;;;;;;;;13.75;60.78;99453.00;1087286;54;19942;-79
2023/03/30 00:36:08;;;;;;;;;;;;;;;13.75;60.13;99449.44;1087272;54;19927;-80
2023/03/30 00:37:14;;;;;;;;;;;;;;;13.74;61.05;99451.31;1087236;54;19942;-78
2023/03/30 00:38:19;;;;;;;;;;;;;;;13.78;59.50;99446.41;1086971;54;19950;-80
2023/03/30 00:39:25;;;;;;;;;;;;;;;13.80;59.32;99442.53;1087099;54;19965;-79
2023/03/30 00:40:27;;;;;;;;;;;;;;;13.77;60.51;99445.59;1087766;39;20484;-79
2023/03/30 00:41:30;;;;;;;;;;;;;;;13.78;60.27;99425.78;1087004;54;19942;-79
2023/03/30 00:42:31;;;;;;;;;;;;;;;13.80;59.90;99430.97;1087001;54;19957;-80
2023/03/30 00:43:36;;;;;;;;;;;;;;;13.76;61.46;99430.50;1086979;54;19946;-79
2023/03/30 00:44:52;;;;;;;;;;;;;;;13.71;61.57;99428.34;1086918;54;19927;-80
2023/03/30 00:45:57;;;;;;;;;;;;;;;13.75;61.14;99419.91;1086950;54;19942;-80
2023/03/30 00:46:58;;;;;;;;;;;;;;;13.75;61.55;99420.75;1086925;54;19949;-81
2023/03/30 00:48:07;;;;;;;;;;;;;;;13.65;62.79;99420.16;1087460;39;20472;-80
2023/03/30 00:49:09;;;;;;;;;;;;;;;13.55;63.31;99410.50;1087207;54;19973;-80
2023/03/30 00:50:15;;;;;;;;;;;;;;;13.64;61.79;99413.13;1087187;54;19942;-79
2023/03/30 00:51:20;;;;;;;;;;;;;;;13.68;62.18;99406.38;1087318;54;19951;-80
2023/03/30 00:52:23;;;;;;;;;;;;;;;13.66;62.61;99414.59;1087267;54;19942;-79
2023/03/30 00:53:31;;;;;;;;;;;;;;;13.71;61.41;99408.69;1087230;54;19942;-78
2023/03/30 00:54:32;;;;;;;;;;;;;;;13.78;61.19;99414.19;1087143;54;19934;-79
2023/03/30 00:55:37;;;;;;;;;;;;;;;13.82;61.36;99413.63;1087025;54;20790;-79
2023/03/30 00:56:39;;;;;;;;;;;;;;;13.77;63.08;99408.00;1088719;39;20579;-81
2023/03/30 00:57:45;;;;;;;;;;;;;;;13.77;62.02;99408.00;1087509;54;19939;-81
2023/03/30 00:58:49;;;;;;;;;;;;;;;13.78;62.13;99398.91;1087511;54;19966;-81
2023/03/30 00:59:51;;;;;;;;;;;;;;;13.82;61.74;99397.53;1087522;54;19942;-81
2023/03/30 01:00:57;;;;;;;;;;;;;;;13.85;61.73;99402.53;1087532;54;19942;-80
2023/03/30 01:01:59;;;;;;;;;;;;;;;13.83;62.95;99396.50;1087622;54;19965;-80
2023/03/30 01:03:06;;;;;;;;;;;;;;;13.84;62.79;99408.94;1087592;54;20914;-81
2023/03/30 01:04:08;;;;;;;;;;;;;;;13.85;62.50;99397.16;1087640;54;19947;-80
2023/03/30 01:05:12;;;;;;;;;;;;;;;13.83;62.83;99388.44;1090526;46;19946;-81
2023/03/30 01:06:16;;;;;;;;;;;;;;;13.84;62.26;99387.44;1087399;54;19942;-80
2023/03/30 01:07:23;;;;;;;;;;;;;;;13.88;61.35;99383.38;1089332;39;20601;-80
2023/03/30 01:08:27;;;;;;;;;;;;;;;13.91;61.02;99386.69;1087355;54;19949;-79
2023/03/30 01:09:31;;;;;;;;;;;;;;;13.96;60.14;99389.69;1088733;46;19966;-80
2023/03/30 01:10:35;;;;;;;;;;;;;;;14.03;59.78;99382.56;1087413;54;19943;-79
2023/03/30 01:11:36;;;;;;;;;;;;;;;14.09;59.42;99389.03;1087429;54;19950;-80
2023/03/30 01:12:40;;;;;;;;;;;;;;;14.18;59.02;99387.94;1087559;54;19994;-80
2023/03/30 01:13:44;;;;;;;;;;;;;;;14.23;58.05;99385.53;1088119;46;19942;-81
2023/03/30 01:14:55;;;;;;;;;;;;;;;14.34;57.75;99384.25;1087877;54;19939;-81
2023/03/30 01:16:01;;;;;;;;;;;;;;;14.42;57.29;99384.16;1088306;46;19942;-80
2023/03/30 01:17:08;;;;;;;;;;;;;;;14.48;56.95;99383.38;1087924;54;19950;-81
2023/03/30 01:18:16;;;;;;;;;;;;;;;14.53;56.19;99388.22;1087711;54;19938;-81
2023/03/30 01:19:30;;;;;;;;;;;;;;;14.59;56.45;99384.78;1087830;54;19958;-79
2023/03/30 01:20:46;;;;;;;;;;;;;;;14.66;56.07;99379.47;1087638;54;19942;-80
2023/03/30 01:22:07;;;;;;;;;;;;;;;14.71;55.74;99382.47;1087427;54;19959;-81
2023/03/30 01:23:26;;;;;;;;;;;;;;;14.72;55.74;99378.78;1088397;39;20455;-79
2023/03/30 01:24:47;;;;;;;;;;;;;;;14.77;55.45;99379.03;1087344;54;19950;-80
2023/03/30 01:26:07;;;;;;;;;;;;;;;14.81;55.34;99377.66;1087165;54;19961;-79
2023/03/30 01:27:18;;;;;;;;;;;;;;;14.84;55.27;99375.56;1087479;54;19966;-79
2023/03/30 01:28:30;;;;;;;;;;;;;;;14.86;55.16;99370.84;1087475;54;19942;-79
2023/03/30 01:29:46;;;;;;;;;;;;;;;14.87;55.00;99370.69;1087453;54;19949;-80
2023/03/30 01:30:57;;;;;;;;;;;;;;;14.88;55.20;99371.50;1091241;46;19950;-80
2023/03/30 01:32:15;;;;;;;;;;;;;;;14.89;54.96;99370.47;1087753;54;20020;-80
2023/03/30 01:33:34;;;;;;;;;;;;;;;14.87;55.25;99370.69;1092533;39;20538;-81
2023/03/30 01:34:48;;;;;;;;;;;;;;;14.89;55.38;99374.00;1086963;54;19951;-79
2023/03/30 01:36:06;;;;;;;;;;;;;;;14.92;55.05;99372.81;1087931;46;19946;-80
2023/03/30 01:37:27;;;;;;;;;;;;;;;14.89;55.49;99371.28;1087347;39;20746;-79
2023/03/30 01:38:54;;;;;;;;;;;;;;;14.88;55.40;99375.00;1086145;54;19950;-79
2023/03/30 01:40:08;;;;;;;;;;;;;;;14.87;55.51;99375.22;1086025;54;20014;-80
2023/03/30 01:41:12;;;;;;;;;;;;;;;14.88;55.77;99376.88;1086131;54;19973;-79
2023/03/30 01:42:19;;;;;;;;;;;;;;;14.82;55.91;99378.47;1085841;54;19958;-80
2023/03/30 01:43:27;;;;;;;;;;;;;;;14.81;55.64;99383.03;1086110;54;19947;-80
2023/03/30 01:44:34;;;;;;;;;;;;;;;14.82;55.98;99368.56;1087035;54;19958;-80
2023/03/30 01:45:41;;;;;;;;;;;;;;;14.82;55.94;99375.78;1086127;54;20525;-80
2023/03/30 01:46:47;;;;;;;;;;;;;;;14.82;56.16;99376.63;1086751;46;19962;-80
2023/03/30 01:47:52;;;;;;;;;;;;;;;14.86;56.34;99374.38;1086490;39;20282;-80
2023/03/30 01:49:00;;;;;;;;;;;;;;;14.82;56.16;99362.31;1086275;54;19951;-80
2023/03/30 01:50:04;;;;;;;;;;;;;;;14.82;56.16;99368.56;1085556;54;19969;-80
2023/03/30 01:51:10;;;;;;;;;;;;;;;14.79;56.33;99368.91;1085806;54;20097;-80
2023/03/30 01:52:14;;;;;;;;;;;;;;;14.77;56.30;99370.13;1085838;54;19947;-80
2023/03/30 01:53:18;;;;;;;;;;;;;;;14.80;56.32;99367.91;1086940;39;20424;-79
2023/03/30 01:54:22;;;;;;;;;;;;;;;14.84;56.21;99375.56;1085550;54;19946;-79
2023/03/30 01:55:34;;;;;;;;;;;;;;;14.86;55.83;99366.31;1085617;54;20522;-80
2023/03/30 01:56:37;;;;;;;;;;;;;;;14.88;55.80;99377.69;1084624;47;20442;-79
2023/03/30 01:57:46;;;;;;;;;;;;;;;14.88;55.94;99371.50;1085569;54;19950;-81
2023/03/30 01:58:49;;;;;;;;;;;;;;;14.88;55.52;99384.94;1085441;54;19977;-79
2023/03/30 01:59:55;;;;;;;;;;;;;;;14.90;55.52;99390.97;1086363;54;20002;-79
2023/03/30 02:00:58;;;;;;;;;;;;;;;14.93;55.54;99394.13;1085331;54;20673;-79
2023/03/30 02:02:02;;;;;;;;;;;;;;;14.95;55.24;99404.69;1086486;54;19973;-78
2023/03/30 02:03:07;;;;;;;;;;;;;;;15.00;55.43;99404.13;1085631;54;19950;-80
2023/03/30 02:04:12;;;;;;;;;;;;;;;15.02;55.37;99394.00;1085034;54;20724;-79
2023/03/30 02:05:16;;;;;;;;;;;;;;;15.04;55.39;99400.88;1085949;54;19950;-79
2023/03/30 02:06:23;;;;;;;;;;;;;;;15.05;55.50;99402.53;1086091;54;19942;-82
2023/03/30 02:07:26;;;;;;;;;;;;;;;15.07;55.22;99402.34;1086638;54;19955;-81
2023/03/30 02:08:32;;;;;;;;;;;;;;;15.05;55.52;99413.31;1086902;54;19950;-80
2023/03/30 02:09:36;;;;;;;;;;;;;;;15.13;55.19;99412.38;1085999;54;19957;-80
2023/03/30 02:10:45;;;;;;;;;;;;;;;15.15;55.44;99406.78;1085971;54;20542;-80
2023/03/30 02:11:48;;;;;;;;;;;;;;;15.16;55.06;99405.75;1086471;54;20560;-79
2023/03/30 02:12:54;;;;;;;;;;;;;;;15.19;54.99;99402.69;1086181;54;20560;-81
2023/03/30 02:13:58;;;;;;;;;;;;;;;15.22;54.95;99396.91;1085364;54;19977;-80
2023/03/30 02:15:04;;;;;;;;;;;;;;;15.20;54.77;99382.84;1085748;54;19951;-80
2023/03/30 02:16:08;;;;;;;;;;;;;;;15.25;55.01;99388.47;1086481;54;19943;-80
2023/03/30 02:17:16;;;;;;;;;;;;;;;15.24;54.89;99387.63;1087050;39;20285;-81
2023/03/30 02:18:18;;;;;;;;;;;;;;;15.26;54.90;99388.25;1086418;54;19949;-81
2023/03/30 02:19:22;;;;;;;;;;;;;;;15.28;54.89;99388.91;1086457;54;19954;-81
2023/03/30 02:20:24;;;;;;;;;;;;;;;15.34;55.00;99381.94;1086850;47;19950;-80
2023/03/30 02:21:28;;;;;;;;;;;;;;;15.33;54.58;99380.25;1086180;54;20124;-80
2023/03/30 02:22:31;;;;;;;;;;;;;;;15.35;54.63;99380.91;1085676;54;19981;-79
2023/03/30 02:23:37;;;;;;;;;;;;;;;15.31;54.86;99382.31;1085933;54;20049;-80
2023/03/30 02:24:39;;;;;;;;;;;;;;;15.34;54.88;99379.22;1085836;54;19985;-80
2023/03/30 02:25:46;;;;;;;;;;;;;;;15.34;54.87;99379.22;1086016;54;19946;-80
2023/03/30 02:26:50;;;;;;;;;;;;;;;15.36;54.89;99385.25;1085523;54;19951;-81
2023/03/30 02:27:54;;;;;;;;;;;;;;;15.44;54.92;99381.63;1084989;54;19943;-79
2023/03/30 02:28:55;;;;;;;;;;;;;;;15.47;54.86;99377.69;1084530;54;19954;-80
2023/03/30 02:29:59;;;;;;;;;;;;;;;15.46;55.04;99384.09;1086392;54;20006;-81
2023/03/30 02:31:00;;;;;;;;;;;;;;;15.46;55.34;99389.50;1086820;54;19950;-81
2023/03/30 02:32:04;;;;;;;;;;;;;;;15.44;55.33;99393.22;1087120;54;19949;-80
2023/03/30 02:33:06;;;;;;;;;;;;;;;15.49;55.20;99397.19;1087232;54;19949;-81
2023/03/30 02:34:15;;;;;;;;;;;;;;;15.44;55.31;99393.22;1086549;54;19942;-80
2023/03/30 02:35:38;;;;;;;;;;;;;;;15.44;55.69;99398.59;1087192;54;19939;-80
2023/03/30 02:36:46;;;;;;;;;;;;;;;15.44;55.78;99398.59;1086961;54;19950;-82
2023/03/30 02:38:04;;;;;;;;;;;;;;;15.39;56.04;99400.19;1087348;54;19943;-80
2023/03/30 02:39:12;;;;;;;;;;;;;;;15.36;56.08;99404.13;1086475;54;20042;-80
2023/03/30 02:40:26;;;;;;;;;;;;;;;15.36;56.12;99404.13;1086396;54;19943;-80
2023/03/30 02:41:48;;;;;;;;;;;;;;;15.40;56.09;99402.69;1086689;54;19958;-80
2023/03/30 02:43:02;;;;;;;;;;;;;;;15.38;56.13;99393.13;1085839;54;19950;-80
2023/03/30 02:44:08;;;;;;;;;;;;;;;15.37;56.38;99396.84;1086345;54;19951;-80
2023/03/30 02:45:19;;;;;;;;;;;;;;;15.43;56.01;99398.81;1086401;54;19953;-80
2023/03/30 02:46:33;;;;;;;;;;;;;;;15.34;56.39;99395.38;1086492;54;19943;-80
2023/03/30 02:47:45;;;;;;;;;;;;;;;15.39;56.18;99390.28;1088242;39;20222;-80
2023/03/30 02:48:54;;;;;;;;;;;;;;;15.39;56.50;99390.28;1086119;54;19942;-80
2023/03/30 02:50:00;;;;;;;;;;;;;;;15.41;56.40;99385.50;1086605;54;19950;-79
2023/03/30 02:51:07;;;;;;;;;;;;;;;15.46;56.40;99389.50;1086919;39;20508;-80
2023/03/30 02:52:20;;;;;;;;;;;;;;;15.44;56.52;99387.81;1086547;54;19947;-81
2023/03/30 02:53:24;;;;;;;;;;;;;;;15.42;56.56;99384.47;1086751;54;20587;-80
2023/03/30 02:54:34;;;;;;;;;;;;;;;15.41;56.45;99373.91;1086490;54;19951;-80
2023/03/30 02:55:40;;;;;;;;;;;;;;;15.41;57.00;99366.66;1086092;54;19942;-80
2023/03/30 02:56:49;;;;;;;;;;;;;;;15.43;57.32;99370.00;1087101;54;19943;-80
2023/03/30 02:57:56;;;;;;;;;;;;;;;15.43;57.34;99377.25;1086891;54;19946;-80
2023/03/30 02:59:04;;;;;;;;;;;;;;;15.46;57.11;99376.03;1086868;54;19950;-80
2023/03/30 03:00:09;;;;;;;;;;;;;;;15.43;57.41;99374.56;1086309;54;20030;-81
2023/03/30 03:01:16;;;;;;;;;;;;;;;15.45;57.23;99377.88;1087141;39;20503;-80
2023/03/30 03:02:20;;;;;;;;;;;;;;;15.48;57.18;99372.13;1086375;54;19949;-80
2023/03/30 03:03:27;;;;;;;;;;;;;;;15.42;57.50;99372.91;1087313;54;19947;-80
2023/03/30 03:04:33;;;;;;;;;;;;;;;15.41;57.53;99365.84;1087085;54;19947;-80
2023/03/30 03:05:36;;;;;;;;;;;;;;;15.43;57.41;99361.91;1087324;54;20105;-80
2023/03/30 03:06:38;;;;;;;;;;;;;;;15.37;58.17;99368.09;1086814;54;19950;-80
2023/03/30 03:07:43;;;;;;;;;;;;;;;15.40;58.04;99380.31;1087368;46;19955;-81
2023/03/30 03:08:46;;;;;;;;;;;;;;;15.43;57.57;99386.16;1086536;54;19943;-80
2023/03/30 03:09:50;;;;;;;;;;;;;;;15.49;57.58;99383.72;1086185;54;20047;-80
2023/03/30 03:10:52;;;;;;;;;;;;;;;15.46;57.73;99386.81;1087105;54;19997;-80
2023/03/30 03:11:58;;;;;;;;;;;;;;;15.43;57.98;99385.34;1087311;54;19942;-80
2023/03/30 03:13:00;;;;;;;;;;;;;;;15.49;57.80;99391.81;1087176;54;19942;-80
2023/03/30 03:14:10;;;;;;;;;;;;;;;15.44;58.14;99377.06;1087268;54;19942;-81
2023/03/30 03:15:12;;;;;;;;;;;;;;;15.49;58.19;99376.47;1087031;54;19954;-80
2023/03/30 03:16:16;;;;;;;;;;;;;;;15.50;58.00;99361.13;1087023;54;19949;-79
2023/03/30 03:17:21;;;;;;;;;;;;;;;15.51;58.60;99343.94;1087513;54;19949;-80
2023/03/30 03:18:26;;;;;;;;;;;;;;;15.55;58.25;99312.91;1087483;54;19934;-80
2023/03/30 03:19:27;;;;;;;;;;;;;;;15.55;58.49;99312.91;1087537;54;19958;-80
2023/03/30 03:20:31;;;;;;;;;;;;;;;15.55;58.68;99312.91;1086661;54;19957;-80
2023/03/30 03:21:33;;;;;;;;;;;;;;;15.55;58.83;99313.72;1086332;54;19946;-80
2023/03/30 03:22:36;;;;;;;;;;;;;;;15.58;58.69;99313.34;1085906;54;19949;-80
2023/03/30 03:23:38;;;;;;;;;;;;;;;15.57;59.12;99319.75;1086584;54;19942;-80
2023/03/30 03:24:43;;;;;;;;;;;;;;;15.59;59.43;99325.78;1087055;54;19950;-80
2023/03/30 03:25:44;;;;;;;;;;;;;;;15.59;59.67;99324.94;1086062;54;19950;-79
2023/03/30 03:26:48;;;;;;;;;;;;;;;15.60;59.50;99332.00;1086587;54;19942;-80
2023/03/30 03:27:52;;;;;;;;;;;;;;;15.63;59.37;99337.00;1085784;46;20780;-80
2023/03/30 03:28:55;;;;;;;;;;;;;;;15.56;60.42;99349.59;1087102;54;19962;-80
2023/03/30 03:29:57;;;;;;;;;;;;;;;15.56;60.18;99357.69;1087238;54;19965;-80
2023/03/30 03:31:02;;;;;;;;;;;;;;;15.60;59.94;99353.56;1087425;54;19954;-80
2023/03/30 03:32:03;;;;;;;;;;;;;;;15.62;60.07;99348.81;1087199;54;19973;-80
2023/03/30 03:33:07;;;;;;;;;;;;;;;15.61;60.29;99366.00;1087037;54;19957;-80
2023/03/30 03:34:08;;;;;;;;;;;;;;;15.63;60.03;99372.03;1087162;54;19958;-80
2023/03/30 03:35:12;;;;;;;;;;;;;;;15.57;60.95;99375.50;1087384;54;20694;-80
2023/03/30 03:36:13;;;;;;;;;;;;;;;15.52;61.16;99373.41;1087270;54;19950;-79
2023/03/30 03:37:17;;;;;;;;;;;;;;;15.55;60.97;99382.94;1087009;54;19942;-79
2023/03/30 03:38:19;;;;;;;;;;;;;;;15.49;61.14;99379.16;1087005;54;19958;-79
2023/03/30 03:39:23;;;;;;;;;;;;;;;15.52;61.02;99388.72;1086184;54;19943;-80
2023/03/30 03:40:24;;;;;;;;;;;;;;;15.54;60.50;99392.06;1086159;54;19962;-79
2023/03/30 03:41:28;;;;;;;;;;;;;;;15.53;60.69;99379.59;1086064;54;19954;-80
2023/03/30 03:42:29;;;;;;;;;;;;;;;15.52;60.90;99372.56;1087876;39;20853;-80
2023/03/30 03:43:35;;;;;;;;;;;;;;;15.49;60.54;99367.56;1084865;54;19950;-80
2023/03/30 03:44:37;;;;;;;;;;;;;;;15.47;61.05;99375.00;1085060;54;19953;-78
2023/03/30 03:45:41;;;;;;;;;;;;;;;15.37;62.15;99369.94;1084690;54;19951;-80
2023/03/30 03:46:42;;;;;;;;;;;;;;;15.29;62.76;99370.91;1084408;54;19950;-79
2023/03/30 03:47:46;;;;;;;;;;;;;;;15.27;62.77;99367.56;1084589;54;20555;-79
2023/03/30 03:48:47;;;;;;;;;;;;;;;15.28;62.65;99369.25;1084817;54;20409;-79
2023/03/30 03:49:52;;;;;;;;;;;;;;;15.27;62.57;99376.47;1084923;54;19946;-79
2023/03/30 03:50:53;;;;;;;;;;;;;;;15.25;62.70;99383.94;1085299;54;19947;-81
2023/03/30 03:51:58;;;;;;;;;;;;;;;15.10;64.03;99397.44;1085473;54;19997;-79
2023/03/30 03:52:59;;;;;;;;;;;;;;;15.07;63.80;99403.19;1085754;54;19954;-80
2023/03/30 03:54:03;;;;;;;;;;;;;;;14.96;64.56;99414.44;1086037;54;19954;-80
2023/03/30 03:55:05;;;;;;;;;;;;;;;14.98;64.42;99415.09;1085735;54;19950;-79
2023/03/30 03:56:10;;;;;;;;;;;;;;;14.91;65.48;99423.06;1086904;54;19938;-80
2023/03/30 03:57:12;;;;;;;;;;;;;;;14.89;65.86;99429.69;1087454;54;19942;-80
2023/03/30 03:58:16;;;;;;;;;;;;;;;14.91;65.84;99416.88;1087325;54;19950;-80
2023/03/30 03:59:20;;;;;;;;;;;;;;;14.94;65.36;99408.41;1087395;54;19934;-80
2023/03/30 04:00:25;;;;;;;;;;;;;;;14.97;65.44;99405.34;1087397;54;19974;-80
2023/03/30 04:01:28;;;;;;;;;;;;;;;14.96;65.61;99392.91;1087543;54;19950;-79
2023/03/30 04:02:32;;;;;;;;;;;;;;;14.91;66.49;99382.72;1087549;54;19990;-81
2023/03/30 04:03:34;;;;;;;;;;;;;;;14.87;67.51;99368.00;1087335;54;19949;-80
2023/03/30 04:04:38;;;;;;;;;;;;;;;14.79;68.63;99363.53;1087716;54;19989;-80
2023/03/30 04:05:40;;;;;;;;;;;;;;;14.76;67.88;99360.41;1087676;54;19950;-80
2023/03/30 04:06:45;;;;;;;;;;;;;;;14.69;69.36;99362.19;1087671;54;19947;-80
2023/03/30 04:07:47;;;;;;;;;;;;;;;14.64;69.69;99360.03;1087683;54;19946;-81
2023/03/30 04:08:50;;;;;;;;;;;;;;;14.59;70.15;99351.66;1087572;54;19950;-82
2023/03/30 04:09:51;;;;;;;;;;;;;;;14.59;68.83;99351.66;1087668;54;19942;-80
2023/03/30 04:10:55;;;;;;;;;;;;;;;14.55;70.10;99355.78;1087678;54;19943;-79
2023/03/30 04:11:57;;;;;;;;;;;;;;;14.49;70.11;99347.41;1087653;54;19947;-80
2023/03/30 04:13:01;;;;;;;;;;;;;;;14.42;71.19;99330.38;1087707;54;19950;-80
2023/03/30 04:14:03;;;;;;;;;;;;;;;14.36;71.43;99341.84;1087770;54;19943;-81
2023/03/30 04:15:10;;;;;;;;;;;;;;;14.35;70.83;99330.28;1087496;54;19943;-80
2023/03/30 04:16:11;;;;;;;;;;;;;;;14.32;72.85;99327.13;1087597;54;19942;-80
2023/03/30 04:17:22;;;;;;;;;;;;;;;14.34;71.63;99322.41;1087724;54;19939;-81
2023/03/30 04:18:23;;;;;;;;;;;;;;;14.35;70.71;99311.47;1088614;39;20433;-81
2023/03/30 04:19:30;;;;;;;;;;;;;;;14.39;70.16;99308.41;1087718;54;20309;-81
2023/03/30 04:20:31;;;;;;;;;;;;;;;14.35;71.16;99306.09;1087574;54;20441;-81
2023/03/30 04:21:35;;;;;;;;;;;;;;;14.34;71.14;99300.91;1089565;39;20566;-82
2023/03/30 04:22:36;;;;;;;;;;;;;;;14.36;70.83;99304.22;1087429;54;19947;-81
2023/03/30 04:23:44;;;;;;;;;;;;;;;14.35;70.73;99306.09;1087439;54;19943;-80
2023/03/30 04:24:45;;;;;;;;;;;;;;;14.35;70.90;99294.50;1087415;54;20532;-80
2023/03/30 04:25:50;;;;;;;;;;;;;;;14.37;70.87;99305.06;1087445;54;20010;-80
2023/03/30 04:26:52;;;;;;;;;;;;;;;14.39;70.63;99303.03;1087161;46;19958;-81
2023/03/30 04:27:56;;;;;;;;;;;;;;;14.37;71.26;99297.81;1087349;54;19947;-81
2023/03/30 04:28:59;;;;;;;;;;;;;;;14.36;71.35;99301.53;1087441;54;19958;-81
2023/03/30 04:30:02;;;;;;;;;;;;;;;14.38;70.87;99301.34;1087446;54;20541;-81
2023/03/30 04:31:09;;;;;;;;;;;;;;;14.39;70.95;99297.66;1087415;54;19949;-80
2023/03/30 04:32:19;;;;;;;;;;;;;;;14.39;71.12;99293.09;1087629;39;20369;-81
2023/03/30 04:33:20;;;;;;;;;;;;;;;14.40;71.01;99288.56;1085673;54;19950;-80
2023/03/30 04:34:25;;;;;;;;;;;;;;;14.42;70.60;99297.25;1086060;46;20472;-80
2023/03/30 04:35:26;;;;;;;;;;;;;;;14.44;70.45;99290.69;1086614;46;19947;-80
2023/03/30 04:36:30;;;;;;;;;;;;;;;14.43;70.81;99288.16;1085329;54;19946;-80
2023/03/30 04:37:31;;;;;;;;;;;;;;;14.40;71.27;99289.38;1085892;54;19947;-80
2023/03/30 04:38:35;;;;;;;;;;;;;;;14.40;71.28;99285.88;1085192;54;19957;-80
2023/03/30 04:39:36;;;;;;;;;;;;;;;14.41;71.32;99280.31;1085300;54;20245;-80
2023/03/30 04:40:40;;;;;;;;;;;;;;;14.39;71.29;99282.34;1086496;54;19954;-80
2023/03/30 04:41:44;;;;;;;;;;;;;;;14.38;70.98;99277.97;1086265;54;19950;-79
2023/03/30 04:42:49;;;;;;;;;;;;;;;14.35;71.49;99281.88;1085725;54;19953;-78
2023/03/30 04:43:54;;;;;;;;;;;;;;;14.38;71.12;99274.47;1085615;54;19962;-79
2023/03/30 04:44:58;;;;;;;;;;;;;;;14.41;70.49;99263.31;1086196;54;19959;-79
2023/03/30 04:45:59;;;;;;;;;;;;;;;14.41;70.68;99258.78;1085001;54;19969;-79
2023/03/30 04:47:05;;;;;;;;;;;;;;;14.37;71.13;99252.09;1086341;54;20307;-79
2023/03/30 04:48:07;;;;;;;;;;;;;;;14.34;71.46;99261.41;1086159;54;19958;-80
2023/03/30 04:49:10;;;;;;;;;;;;;;;14.34;71.15;99258.69;1086342;54;19974;-78
2023/03/30 04:50:12;;;;;;;;;;;;;;;14.34;71.01;99263.25;1085602;39;20470;-79
2023/03/30 04:51:15;;;;;;;;;;;;;;;14.34;71.38;99266.78;1085608;54;19962;-78
2023/03/30 04:52:16;;;;;;;;;;;;;;;14.35;70.90;99268.44;1085072;54;19946;-79
2023/03/30 04:53:22;;;;;;;;;;;;;;;14.30;71.65;99272.72;1085509;54;19953;-81
2023/03/30 04:54:23;;;;;;;;;;;;;;;14.25;71.96;99277.84;1087345;54;20019;-81
2023/03/30 04:55:29;;;;;;;;;;;;;;;14.21;72.56;99290.81;1087973;54;19994;-80
2023/03/30 04:56:30;;;;;;;;;;;;;;;14.27;71.98;99291.91;1088830;46;19998;-81
2023/03/30 04:57:34;;;;;;;;;;;;;;;14.20;72.25;99273.03;1088734;46;19947;-81
2023/03/30 04:58:35;;;;;;;;;;;;;;;14.22;72.38;99270.94;1087431;54;19938;-82
2023/03/30 04:59:41;;;;;;;;;;;;;;;14.20;72.53;99263.09;1088467;46;19938;-81
2023/03/30 05:00:42;;;;;;;;;;;;;;;14.18;72.89;99257.06;1089032;46;19949;-80
2023/03/30 05:01:48;;;;;;;;;;;;;;;14.18;72.54;99246.31;1087564;54;19947;-80
2023/03/30 05:02:51;;;;;;;;;;;;;;;14.15;72.87;99253.91;1087696;54;19942;-80
2023/03/30 05:03:55;;;;;;;;;;;;;;;14.14;72.93;99253.09;1087542;54;19954;-80
2023/03/30 05:04:56;;;;;;;;;;;;;;;14.18;72.45;99240.09;1087558;54;19939;-81
2023/03/30 05:06:04;;;;;;;;;;;;;;;14.14;72.96;99247.72;1087587;54;19939;-80
2023/03/30 05:07:05;;;;;;;;;;;;;;;14.14;72.59;99246.88;1089433;46;19938;-80
2023/03/30 05:08:10;;;;;;;;;;;;;;;14.11;73.32;99263.38;1087563;54;19942;-81
2023/03/30 05:09:12;;;;;;;;;;;;;;;14.09;73.64;99260.88;1087751;39;20141;-80
2023/03/30 05:10:17;;;;;;;;;;;;;;;14.11;73.36;99268.75;1087546;54;19943;-80
2023/03/30 05:11:20;;;;;;;;;;;;;;;14.04;74.01;99264.13;1087595;54;19965;-81
2023/03/30 05:12:24;;;;;;;;;;;;;;;14.00;74.52;99262.00;1087606;54;19934;-81
2023/03/30 05:13:25;;;;;;;;;;;;;;;13.98;74.69;99264.88;1087091;54;19981;-80
2023/03/30 05:14:29;;;;;;;;;;;;;;;14.00;74.53;99248.56;1086976;54;19942;-81
2023/03/30 05:15:30;;;;;;;;;;;;;;;13.99;74.69;99247.72;1086678;54;19954;-80
2023/03/30 05:16:35;;;;;;;;;;;;;;;13.99;74.83;99249.56;1086275;54;19954;-80
2023/03/30 05:17:37;;;;;;;;;;;;;;;13.95;74.86;99249.13;1087213;54;19950;-81
2023/03/30 05:18:43;;;;;;;;;;;;;;;13.91;75.22;99255.91;1087658;46;19949;-80
2023/03/30 05:19:45;;;;;;;;;;;;;;;13.93;74.75;99261.06;1087802;39;20484;-80
2023/03/30 05:20:49;;;;;;;;;;;;;;;13.88;75.53;99259.78;1086521;54;19942;-80
2023/03/30 05:21:50;;;;;;;;;;;;;;;13.86;75.49;99256.44;1087013;31;20464;-81
2023/03/30 05:22:56;;;;;;;;;;;;;;;13.90;75.36;99262.28;1087296;54;19994;-81
2023/03/30 05:23:58;;;;;;;;;;;;;;;13.88;75.52;99254.41;1086594;54;20508;-80
2023/03/30 05:25:02;;;;;;;;;;;;;;;13.85;75.88;99260.16;1086926;54;19946;-80
2023/03/30 05:26:05;;;;;;;;;;;;;;;13.84;75.91;99266.53;1087201;54;19942;-80
2023/03/30 05:27:11;;;;;;;;;;;;;;;13.83;76.10;99259.50;1087016;54;19923;-79
2023/03/30 05:28:15;;;;;;;;;;;;;;;13.84;75.80;99253.13;1085910;54;20402;-80
2023/03/30 05:29:20;;;;;;;;;;;;;;;13.82;76.27;99260.50;1087191;54;19979;-79
2023/03/30 05:30:22;;;;;;;;;;;;;;;13.85;75.95;99264.69;1087345;54;20603;-80
2023/03/30 05:31:26;;;;;;;;;;;;;;;13.86;75.76;99260.97;1087205;54;19942;-81
2023/03/30 05:32:28;;;;;;;;;;;;;;;13.88;75.67;99259.78;1088132;39;20452;-80
2023/03/30 05:33:33;;;;;;;;;;;;;;;13.88;75.48;99254.41;1087955;39;20187;-81
2023/03/30 05:34:39;;;;;;;;;;;;;;;13.98;74.52;99261.38;1087293;54;19950;-80
2023/03/30 05:35:40;;;;;;;;;;;;;;;14.01;74.27;99253.75;1086270;54;19947;-80
2023/03/30 05:36:45;;;;;;;;;;;;;;;14.05;74.44;99251.53;1086243;54;20549;-80
2023/03/30 05:37:48;;;;;;;;;;;;;;;14.02;74.59;99241.16;1087315;54;19951;-81
2023/03/30 05:38:53;;;;;;;;;;;;;;;14.01;74.42;99243.00;1086974;54;19942;-80